sensor_id;sensor_type;location;lat;lon;timestamp;temperature;humidity
56298;DHT22;42208;6.376;-10.782;2023-04-15T00:00:10;28.00;99.90
56298;DHT22;42208;6.376;-10.782;2023-04-15T00:02:44;28.00;99.90
56298;DHT22;42208;6.376;-10.782;2023-04-15T00:05:12;28.00;99.90
56298;DHT22;42208;6.376;-10.782;2023-04-15T00:07:41;28.00;99.90
56298;DHT22;42208;6.376;-10.782;2023-04-15T00:10:09;28.00;99.90
56298;DHT22;42208;6.376;-10.782;2023-04-15T00:12:37;28.00;99.90
56298;DHT22;42208;6.376;-10.782;2023-04-15T00:15:07;28.00;99.90
56298;DHT22;42208;6.376;-10.782;2023-04-15T00:17:35;28.00;99.90
56298;DHT22;42208;6.376;-10.782;2023-04-15T00:20:05;28.00;99.90
56298;DHT22;42208;6.376;-10.782;2023-04-15T00:22:33;28.00;99.90
56298;DHT22;42208;6.376;-10.782;2023-04-15T00:25:01;28.00;99.90
56298;DHT22;42208;6.376;-10.782;2023-04-15T00:27:30;28.00;99.90
56298;DHT22;42208;6.376;-10.782;2023-04-15T00:29:58;28.00;99.90
56298;DHT22;42208;6.376;-10.782;2023-04-15T00:32:26;28.00;99.90
56298;DHT22;42208;6.376;-10.782;2023-04-15T00:34:55;28.00;99.90
56298;DHT22;42208;6.376;-10.782;2023-04-15T00:37:23;28.00;99.90
56298;DHT22;42208;6.376;-10.782;2023-04-15T00:39:52;28.00;99.90
56298;DHT22;42208;6.376;-10.782;2023-04-15T00:42:20;28.00;99.90
56298;DHT22;42208;6.376;-10.782;2023-04-15T00:44:48;28.00;99.90
56298;DHT22;42208;6.376;-10.782;2023-04-15T00:47:18;28.00;99.90
56298;DHT22;42208;6.376;-10.782;2023-04-15T00:49:47;27.90;99.90
56298;DHT22;42208;6.376;-10.782;2023-04-15T00:52:15;27.90;99.90
56298;DHT22;42208;6.376;-10.782;2023-04-15T00:54:43;27.90;99.90
56298;DHT22;42208;6.376;-10.782;2023-04-15T00:57:12;27.90;99.90
56298;DHT22;42208;6.376;-10.782;2023-04-15T00:59:40;27.90;99.90
56298;DHT22;42208;6.376;-10.782;2023-04-15T01:02:08;27.90;99.90
56298;DHT22;42208;6.376;-10.782;2023-04-15T01:04:37;27.90;99.90
56298;DHT22;42208;6.376;-10.782;2023-04-15T01:07:05;27.80;99.90
56298;DHT22;42208;6.376;-10.782;2023-04-15T01:09:33;27.90;99.90
56298;DHT22;42208;6.376;-10.782;2023-04-15T01:12:01;27.80;99.90
56298;DHT22;42208;6.376;-10.782;2023-04-15T01:14:31;27.80;99.90
56298;DHT22;42208;6.376;-10.782;2023-04-15T01:17:00;27.80;99.90
56298;DHT22;42208;6.376;-10.782;2023-04-15T01:19:29;27.80;99.90
56298;DHT22;42208;6.376;-10.782;2023-04-15T01:21:57;27.80;99.90
56298;DHT22;42208;6.376;-10.782;2023-04-15T01:24:27;27.70;99.90
56298;DHT22;42208;6.376;-10.782;2023-04-15T01:26:57;27.70;99.90
56298;DHT22;42208;6.376;-10.782;2023-04-15T01:29:25;27.70;99.90
56298;DHT22;42208;6.376;-10.782;2023-04-15T01:31:55;27.70;99.90
56298;DHT22;42208;6.376;-10.782;2023-04-15T01:34:25;27.80;99.90
56298;DHT22;42208;6.376;-10.782;2023-04-15T01:36:53;27.70;99.90
56298;DHT22;42208;6.376;-10.782;2023-04-15T01:39:22;27.70;99.90
56298;DHT22;42208;6.376;-10.782;2023-04-15T01:41:50;27.70;99.90
56298;DHT22;42208;6.376;-10.782;2023-04-15T01:44:18;27.70;99.90
56298;DHT22;42208;6.376;-10.782;2023-04-15T01:46:46;27.70;99.90
56298;DHT22;42208;6.376;-10.782;2023-04-15T01:49:15;27.70;99.90
56298;DHT22;42208;6.376;-10.782;2023-04-15T01:51:43;27.70;99.90
56298;DHT22;42208;6.376;-10.782;2023-04-15T01:54:12;27.70;99.90
56298;DHT22;42208;6.376;-10.782;2023-04-15T01:56:40;27.70;99.90
56298;DHT22;42208;6.376;-10.782;2023-04-15T01:59:09;27.70;99.90
56298;DHT22;42208;6.376;-10.782;2023-04-15T02:01:38;27.70;99.90
56298;DHT22;42208;6.376;-10.782;2023-04-15T02:04:06;27.60;99.90
56298;DHT22;42208;6.376;-10.782;2023-04-15T02:06:34;27.70;99.90
56298;DHT22;42208;6.376;-10.782;2023-04-15T02:09:02;27.70;99.90
56298;DHT22;42208;6.376;-10.782;2023-04-15T02:11:31;27.60;99.90
56298;DHT22;42208;6.376;-10.782;2023-04-15T02:13:59;27.60;99.90
56298;DHT22;42208;6.376;-10.782;2023-04-15T02:16:27;27.60;99.90
56298;DHT22;42208;6.376;-10.782;2023-04-15T02:18:56;27.60;99.90
56298;DHT22;42208;6.376;-10.782;2023-04-15T02:21:25;27.60;99.90
56298;DHT22;42208;6.376;-10.782;2023-04-15T02:23:54;27.60;99.90
56298;DHT22;42208;6.376;-10.782;2023-04-15T02:26:22;27.60;99.90
56298;DHT22;42208;6.376;-10.782;2023-04-15T02:28:54;27.60;99.90
56298;DHT22;42208;6.376;-10.782;2023-04-15T02:31:22;27.60;99.90
56298;DHT22;42208;6.376;-10.782;2023-04-15T02:33:51;27.60;99.90
56298;DHT22;42208;6.376;-10.782;2023-04-15T02:36:20;27.60;99.90
56298;DHT22;42208;6.376;-10.782;2023-04-15T02:38:48;27.50;99.90
56298;DHT22;42208;6.376;-10.782;2023-04-15T02:41:16;27.60;99.90
56298;DHT22;42208;6.376;-10.782;2023-04-15T02:43:45;27.60;99.90
56298;DHT22;42208;6.376;-10.782;2023-04-15T02:46:14;27.60;99.90
56298;DHT22;42208;6.376;-10.782;2023-04-15T02:48:42;27.50;99.90
56298;DHT22;42208;6.376;-10.782;2023-04-15T02:51:17;27.50;99.90
56298;DHT22;42208;6.376;-10.782;2023-04-15T02:53:47;27.50;99.90
56298;DHT22;42208;6.376;-10.782;2023-04-15T02:56:16;27.50;99.90
56298;DHT22;42208;6.376;-10.782;2023-04-15T02:58:45;27.50;99.90
56298;DHT22;42208;6.376;-10.782;2023-04-15T03:01:13;27.50;99.90
56298;DHT22;42208;6.376;-10.782;2023-04-15T03:03:41;27.50;99.90
56298;DHT22;42208;6.376;-10.782;2023-04-15T03:06:13;27.50;99.90
56298;DHT22;42208;6.376;-10.782;2023-04-15T03:08:42;27.50;99.90
56298;DHT22;42208;6.376;-10.782;2023-04-15T03:11:13;27.50;99.90
56298;DHT22;42208;6.376;-10.782;2023-04-15T03:13:42;27.50;99.90
56298;DHT22;42208;6.376;-10.782;2023-04-15T03:16:22;27.50;99.90
56298;DHT22;42208;6.376;-10.782;2023-04-15T03:18:50;27.40;99.90
56298;DHT22;42208;6.376;-10.782;2023-04-15T03:21:20;27.40;99.90
56298;DHT22;42208;6.376;-10.782;2023-04-15T03:23:48;27.40;99.90
56298;DHT22;42208;6.376;-10.782;2023-04-15T03:26:29;27.50;99.90
56298;DHT22;42208;6.376;-10.782;2023-04-15T03:29:05;27.40;99.90
56298;DHT22;42208;6.376;-10.782;2023-04-15T03:31:33;27.40;99.90
56298;DHT22;42208;6.376;-10.782;2023-04-15T03:34:02;27.40;99.90
56298;DHT22;42208;6.376;-10.782;2023-04-15T03:36:30;27.40;99.90
56298;DHT22;42208;6.376;-10.782;2023-04-15T03:38:59;27.40;99.90
56298;DHT22;42208;6.376;-10.782;2023-04-15T03:41:28;27.40;99.90
56298;DHT22;42208;6.376;-10.782;2023-04-15T03:43:56;27.40;99.90
56298;DHT22;42208;6.376;-10.782;2023-04-15T03:46:24;27.40;99.90
56298;DHT22;42208;6.376;-10.782;2023-04-15T03:48:52;27.40;99.90
56298;DHT22;42208;6.376;-10.782;2023-04-15T03:51:21;27.40;99.90
56298;DHT22;42208;6.376;-10.782;2023-04-15T03:53:49;27.40;99.90
56298;DHT22;42208;6.376;-10.782;2023-04-15T03:56:17;27.40;99.90
56298;DHT22;42208;6.376;-10.782;2023-04-15T03:58:45;27.40;99.90
56298;DHT22;42208;6.376;-10.782;2023-04-15T04:01:13;27.40;99.90
56298;DHT22;42208;6.376;-10.782;2023-04-15T04:03:42;27.40;99.90
56298;DHT22;42208;6.376;-10.782;2023-04-15T04:06:10;27.40;99.90
56298;DHT22;42208;6.376;-10.782;2023-04-15T04:08:38;27.40;99.90
56298;DHT22;42208;6.376;-10.782;2023-04-15T04:11:06;27.40;99.90
56298;DHT22;42208;6.376;-10.782;2023-04-15T04:13:35;27.40;99.90
56298;DHT22;42208;6.376;-10.782;2023-04-15T04:16:03;27.40;99.90
56298;DHT22;42208;6.376;-10.782;2023-04-15T04:18:32;27.40;99.90
56298;DHT22;42208;6.376;-10.782;2023-04-15T04:21:00;27.40;99.90
56298;DHT22;42208;6.376;-10.782;2023-04-15T04:23:28;27.30;99.90
56298;DHT22;42208;6.376;-10.782;2023-04-15T04:25:56;27.40;99.90
56298;DHT22;42208;6.376;-10.782;2023-04-15T04:28:25;27.30;99.90
56298;DHT22;42208;6.376;-10.782;2023-04-15T04:30:53;27.30;99.90
56298;DHT22;42208;6.376;-10.782;2023-04-15T04:33:21;27.30;99.90
56298;DHT22;42208;6.376;-10.782;2023-04-15T04:35:50;27.40;99.90
56298;DHT22;42208;6.376;-10.782;2023-04-15T04:38:18;27.30;99.90
56298;DHT22;42208;6.376;-10.782;2023-04-15T04:40:46;27.30;99.90
56298;DHT22;42208;6.376;-10.782;2023-04-15T04:43:14;27.30;99.90
56298;DHT22;42208;6.376;-10.782;2023-04-15T04:45:43;27.30;99.90
56298;DHT22;42208;6.376;-10.782;2023-04-15T04:48:11;27.30;99.90
56298;DHT22;42208;6.376;-10.782;2023-04-15T04:50:39;27.30;99.90
56298;DHT22;42208;6.376;-10.782;2023-04-15T04:53:08;27.30;99.90
56298;DHT22;42208;6.376;-10.782;2023-04-15T04:55:36;27.20;99.90
56298;DHT22;42208;6.376;-10.782;2023-04-15T04:58:04;27.30;99.90
56298;DHT22;42208;6.376;-10.782;2023-04-15T05:00:32;27.20;99.90
56298;DHT22;42208;6.376;-10.782;2023-04-15T05:03:00;27.20;99.90
56298;DHT22;42208;6.376;-10.782;2023-04-15T05:05:29;27.20;99.90
56298;DHT22;42208;6.376;-10.782;2023-04-15T05:07:57;27.20;99.90
56298;DHT22;42208;6.376;-10.782;2023-04-15T05:10:25;27.10;99.90
56298;DHT22;42208;6.376;-10.782;2023-04-15T05:12:53;27.20;99.90
56298;DHT22;42208;6.376;-10.782;2023-04-15T05:15:21;27.10;99.90
56298;DHT22;42208;6.376;-10.782;2023-04-15T05:17:50;27.10;99.90
56298;DHT22;42208;6.376;-10.782;2023-04-15T05:20:18;27.10;99.90
56298;DHT22;42208;6.376;-10.782;2023-04-15T05:22:46;27.10;99.90
56298;DHT22;42208;6.376;-10.782;2023-04-15T05:25:14;27.10;99.90
56298;DHT22;42208;6.376;-10.782;2023-04-15T05:27:43;27.00;99.90
56298;DHT22;42208;6.376;-10.782;2023-04-15T05:30:11;27.00;99.90
56298;DHT22;42208;6.376;-10.782;2023-04-15T05:32:40;27.00;99.90
56298;DHT22;42208;6.376;-10.782;2023-04-15T05:35:08;27.00;99.90
56298;DHT22;42208;6.376;-10.782;2023-04-15T05:37:36;27.00;99.90
56298;DHT22;42208;6.376;-10.782;2023-04-15T05:40:05;27.00;99.90
56298;DHT22;42208;6.376;-10.782;2023-04-15T05:42:34;27.00;99.90
56298;DHT22;42208;6.376;-10.782;2023-04-15T05:45:03;27.00;99.90
56298;DHT22;42208;6.376;-10.782;2023-04-15T05:47:31;27.00;99.90
56298;DHT22;42208;6.376;-10.782;2023-04-15T05:50:00;27.10;99.90
56298;DHT22;42208;6.376;-10.782;2023-04-15T05:52:28;27.00;99.90
56298;DHT22;42208;6.376;-10.782;2023-04-15T05:54:56;27.00;99.90
56298;DHT22;42208;6.376;-10.782;2023-04-15T05:57:24;27.10;99.90
56298;DHT22;42208;6.376;-10.782;2023-04-15T05:59:53;27.10;99.90
56298;DHT22;42208;6.376;-10.782;2023-04-15T06:02:21;27.10;99.90
56298;DHT22;42208;6.376;-10.782;2023-04-15T06:04:49;27.10;99.90
56298;DHT22;42208;6.376;-10.782;2023-04-15T06:07:17;27.10;99.90
56298;DHT22;42208;6.376;-10.782;2023-04-15T06:09:46;27.10;99.90
56298;DHT22;42208;6.376;-10.782;2023-04-15T06:12:14;27.10;99.90
56298;DHT22;42208;6.376;-10.782;2023-04-15T06:14:43;27.10;99.90
56298;DHT22;42208;6.376;-10.782;2023-04-15T06:17:11;27.10;99.90
56298;DHT22;42208;6.376;-10.782;2023-04-15T06:19:39;27.00;99.90
56298;DHT22;42208;6.376;-10.782;2023-04-15T06:22:08;27.10;99.90
56298;DHT22;42208;6.376;-10.782;2023-04-15T06:24:36;27.10;99.90
56298;DHT22;42208;6.376;-10.782;2023-04-15T06:27:04;27.00;99.90
56298;DHT22;42208;6.376;-10.782;2023-04-15T06:29:33;27.00;99.90
56298;DHT22;42208;6.376;-10.782;2023-04-15T06:32:01;26.90;99.90
56298;DHT22;42208;6.376;-10.782;2023-04-15T06:34:29;26.90;99.90
56298;DHT22;42208;6.376;-10.782;2023-04-15T06:36:57;26.90;99.90
56298;DHT22;42208;6.376;-10.782;2023-04-15T06:39:26;27.00;99.90
56298;DHT22;42208;6.376;-10.782;2023-04-15T06:41:54;26.90;99.90
56298;DHT22;42208;6.376;-10.782;2023-04-15T06:44:22;26.90;99.90
56298;DHT22;42208;6.376;-10.782;2023-04-15T06:46:50;26.90;99.90
56298;DHT22;42208;6.376;-10.782;2023-04-15T06:49:19;26.90;99.90
56298;DHT22;42208;6.376;-10.782;2023-04-15T06:51:47;26.90;99.90
56298;DHT22;42208;6.376;-10.782;2023-04-15T06:54:15;26.90;99.90
56298;DHT22;42208;6.376;-10.782;2023-04-15T06:56:44;26.90;99.90
56298;DHT22;42208;6.376;-10.782;2023-04-15T06:59:12;26.80;99.90
56298;DHT22;42208;6.376;-10.782;2023-04-15T07:01:40;26.90;99.90
56298;DHT22;42208;6.376;-10.782;2023-04-15T07:04:09;26.90;99.90
56298;DHT22;42208;6.376;-10.782;2023-04-15T07:06:37;26.90;99.90
56298;DHT22;42208;6.376;-10.782;2023-04-15T07:09:05;26.90;99.90
56298;DHT22;42208;6.376;-10.782;2023-04-15T07:11:34;26.90;99.90
56298;DHT22;42208;6.376;-10.782;2023-04-15T07:14:02;26.90;99.90
56298;DHT22;42208;6.376;-10.782;2023-04-15T07:16:30;26.90;99.90
56298;DHT22;42208;6.376;-10.782;2023-04-15T07:18:59;26.80;99.90
56298;DHT22;42208;6.376;-10.782;2023-04-15T07:21:28;26.80;99.90
56298;DHT22;42208;6.376;-10.782;2023-04-15T07:23:56;26.90;99.90
56298;DHT22;42208;6.376;-10.782;2023-04-15T07:26:24;26.90;99.90
56298;DHT22;42208;6.376;-10.782;2023-04-15T07:28:52;26.90;99.90
56298;DHT22;42208;6.376;-10.782;2023-04-15T07:31:21;26.90;99.90
56298;DHT22;42208;6.376;-10.782;2023-04-15T07:33:49;26.90;99.90
56298;DHT22;42208;6.376;-10.782;2023-04-15T07:36:17;26.90;99.90
56298;DHT22;42208;6.376;-10.782;2023-04-15T07:38:46;26.90;99.90
56298;DHT22;42208;6.376;-10.782;2023-04-15T07:41:14;27.00;99.90
56298;DHT22;42208;6.376;-10.782;2023-04-15T07:43:42;26.90;99.90
56298;DHT22;42208;6.376;-10.782;2023-04-15T07:46:10;27.00;99.90
56298;DHT22;42208;6.376;-10.782;2023-04-15T07:48:39;27.00;99.90
56298;DHT22;42208;6.376;-10.782;2023-04-15T07:51:07;27.10;99.90
56298;DHT22;42208;6.376;-10.782;2023-04-15T07:53:35;27.10;99.90
56298;DHT22;42208;6.376;-10.782;2023-04-15T07:56:04;27.10;99.90
56298;DHT22;42208;6.376;-10.782;2023-04-15T07:58:32;27.10;99.90
56298;DHT22;42208;6.376;-10.782;2023-04-15T08:01:01;27.10;99.90
56298;DHT22;42208;6.376;-10.782;2023-04-15T08:03:29;27.20;99.90
56298;DHT22;42208;6.376;-10.782;2023-04-15T08:05:57;27.20;99.90
56298;DHT22;42208;6.376;-10.782;2023-04-15T08:08:26;27.30;99.90
56298;DHT22;42208;6.376;-10.782;2023-04-15T08:10:54;27.30;99.90
56298;DHT22;42208;6.376;-10.782;2023-04-15T08:13:22;27.30;99.90
56298;DHT22;42208;6.376;-10.782;2023-04-15T08:16:38;27.30;99.90
56298;DHT22;42208;6.376;-10.782;2023-04-15T08:18:41;27.40;99.90
56298;DHT22;42208;6.376;-10.782;2023-04-15T08:21:10;27.40;99.90
56298;DHT22;42208;6.376;-10.782;2023-04-15T08:23:39;27.50;99.90
56298;DHT22;42208;6.376;-10.782;2023-04-15T08:26:07;27.60;99.90
56298;DHT22;42208;6.376;-10.782;2023-04-15T08:28:38;27.60;99.90
56298;DHT22;42208;6.376;-10.782;2023-04-15T08:31:07;27.60;99.90
56298;DHT22;42208;6.376;-10.782;2023-04-15T08:33:35;27.60;99.90
56298;DHT22;42208;6.376;-10.782;2023-04-15T08:36:04;27.70;99.90
56298;DHT22;42208;6.376;-10.782;2023-04-15T08:38:33;27.70;99.90
56298;DHT22;42208;6.376;-10.782;2023-04-15T08:41:20;27.70;99.90
56298;DHT22;42208;6.376;-10.782;2023-04-15T08:43:53;27.70;99.90
56298;DHT22;42208;6.376;-10.782;2023-04-15T08:46:24;27.80;99.90
56298;DHT22;42208;6.376;-10.782;2023-04-15T08:48:56;27.80;99.90
56298;DHT22;42208;6.376;-10.782;2023-04-15T08:51:25;27.90;99.90
56298;DHT22;42208;6.376;-10.782;2023-04-15T08:53:54;28.00;99.90
56298;DHT22;42208;6.376;-10.782;2023-04-15T08:56:25;28.10;99.90
56298;DHT22;42208;6.376;-10.782;2023-04-15T08:58:55;28.10;99.90
56298;DHT22;42208;6.376;-10.782;2023-04-15T09:01:24;28.20;99.90
56298;DHT22;42208;6.376;-10.782;2023-04-15T09:03:52;28.30;99.90
56298;DHT22;42208;6.376;-10.782;2023-04-15T09:06:22;28.30;99.90
56298;DHT22;42208;6.376;-10.782;2023-04-15T09:08:51;28.40;99.90
56298;DHT22;42208;6.376;-10.782;2023-04-15T09:11:21;28.50;99.90
56298;DHT22;42208;6.376;-10.782;2023-04-15T09:13:49;28.60;99.90
56298;DHT22;42208;6.376;-10.782;2023-04-15T09:16:17;28.60;99.90
56298;DHT22;42208;6.376;-10.782;2023-04-15T09:18:46;28.50;99.90
56298;DHT22;42208;6.376;-10.782;2023-04-15T09:21:15;28.50;99.90
56298;DHT22;42208;6.376;-10.782;2023-04-15T09:23:58;28.50;99.90
56298;DHT22;42208;6.376;-10.782;2023-04-15T09:26:44;28.50;99.90
56298;DHT22;42208;6.376;-10.782;2023-04-15T09:29:13;28.50;99.90
56298;DHT22;42208;6.376;-10.782;2023-04-15T09:31:41;28.40;99.90
56298;DHT22;42208;6.376;-10.782;2023-04-15T09:34:10;28.40;99.90
56298;DHT22;42208;6.376;-10.782;2023-04-15T09:39:17;28.50;99.90
56298;DHT22;42208;6.376;-10.782;2023-04-15T09:41:45;28.50;99.90
56298;DHT22;42208;6.376;-10.782;2023-04-15T09:44:23;28.60;99.90
56298;DHT22;42208;6.376;-10.782;2023-04-15T09:46:52;28.70;99.90
56298;DHT22;42208;6.376;-10.782;2023-04-15T09:49:20;28.70;99.90
56298;DHT22;42208;6.376;-10.782;2023-04-15T09:51:48;28.60;99.90
56298;DHT22;42208;6.376;-10.782;2023-04-15T09:54:35;28.60;99.90
56298;DHT22;42208;6.376;-10.782;2023-04-15T09:57:08;28.70;99.90
56298;DHT22;42208;6.376;-10.782;2023-04-15T09:59:36;28.70;99.90
56298;DHT22;42208;6.376;-10.782;2023-04-15T10:02:05;28.70;99.90
56298;DHT22;42208;6.376;-10.782;2023-04-15T10:04:40;28.70;99.90
56298;DHT22;42208;6.376;-10.782;2023-04-15T10:07:09;28.70;99.90
56298;DHT22;42208;6.376;-10.782;2023-04-15T10:09:38;28.70;99.90
56298;DHT22;42208;6.376;-10.782;2023-04-15T10:12:07;28.70;99.90
56298;DHT22;42208;6.376;-10.782;2023-04-15T10:14:37;28.70;99.90
56298;DHT22;42208;6.376;-10.782;2023-04-15T10:17:06;28.70;99.90
56298;DHT22;42208;6.376;-10.782;2023-04-15T10:19:38;28.70;99.90
56298;DHT22;42208;6.376;-10.782;2023-04-15T10:22:07;28.70;99.90
56298;DHT22;42208;6.376;-10.782;2023-04-15T10:24:36;28.70;99.90
56298;DHT22;42208;6.376;-10.782;2023-04-15T10:27:06;28.80;99.90
56298;DHT22;42208;6.376;-10.782;2023-04-15T10:29:35;28.80;99.90
56298;DHT22;42208;6.376;-10.782;2023-04-15T10:32:03;29.00;99.90
56298;DHT22;42208;6.376;-10.782;2023-04-15T10:34:32;29.20;99.90
56298;DHT22;42208;6.376;-10.782;2023-04-15T10:37:01;29.30;99.90
56298;DHT22;42208;6.376;-10.782;2023-04-15T10:39:41;29.30;99.90
56298;DHT22;42208;6.376;-10.782;2023-04-15T10:42:14;29.30;99.90
56298;DHT22;42208;6.376;-10.782;2023-04-15T10:44:47;29.30;99.90
56298;DHT22;42208;6.376;-10.782;2023-04-15T10:47:18;29.20;99.90
56298;DHT22;42208;6.376;-10.782;2023-04-15T10:49:51;29.20;99.90
56298;DHT22;42208;6.376;-10.782;2023-04-15T10:52:26;29.20;99.90
56298;DHT22;42208;6.376;-10.782;2023-04-15T10:55:13;29.20;99.90
56298;DHT22;42208;6.376;-10.782;2023-04-15T10:57:43;29.20;99.90
56298;DHT22;42208;6.376;-10.782;2023-04-15T11:00:15;29.20;99.90
56298;DHT22;42208;6.376;-10.782;2023-04-15T11:02:56;29.20;99.90
56298;DHT22;42208;6.376;-10.782;2023-04-15T11:05:51;29.20;99.90
56298;DHT22;42208;6.376;-10.782;2023-04-15T11:08:58;29.30;99.90
56298;DHT22;42208;6.376;-10.782;2023-04-15T11:12:18;29.40;99.90
56298;DHT22;42208;6.376;-10.782;2023-04-15T11:14:40;29.50;99.90
56298;DHT22;42208;6.376;-10.782;2023-04-15T11:17:08;29.50;99.90
56298;DHT22;42208;6.376;-10.782;2023-04-15T11:19:37;29.50;99.90
56298;DHT22;42208;6.376;-10.782;2023-04-15T11:22:09;29.50;99.90
56298;DHT22;42208;6.376;-10.782;2023-04-15T11:24:46;29.50;99.90
56298;DHT22;42208;6.376;-10.782;2023-04-15T11:27:21;29.50;99.90
56298;DHT22;42208;6.376;-10.782;2023-04-15T11:29:50;29.60;99.90
56298;DHT22;42208;6.376;-10.782;2023-04-15T11:32:18;29.60;99.90
56298;DHT22;42208;6.376;-10.782;2023-04-15T11:34:51;29.80;99.90
56298;DHT22;42208;6.376;-10.782;2023-04-15T11:37:28;29.90;99.90
56298;DHT22;42208;6.376;-10.782;2023-04-15T11:39:56;30.00;99.90
56298;DHT22;42208;6.376;-10.782;2023-04-15T11:42:24;30.00;99.90
56298;DHT22;42208;6.376;-10.782;2023-04-15T11:47:40;30.00;99.90
56298;DHT22;42208;6.376;-10.782;2023-04-15T11:50:22;30.00;99.90
56298;DHT22;42208;6.376;-10.782;2023-04-15T11:55:23;29.90;99.90
56298;DHT22;42208;6.376;-10.782;2023-04-15T12:00:50;29.90;99.90
56298;DHT22;42208;6.376;-10.782;2023-04-15T12:03:29;29.90;99.90
56298;DHT22;42208;6.376;-10.782;2023-04-15T12:06:20;29.70;99.90
56298;DHT22;42208;6.376;-10.782;2023-04-15T12:09:11;29.70;99.90
56298;DHT22;42208;6.376;-10.782;2023-04-15T12:11:47;29.70;99.90
56298;DHT22;42208;6.376;-10.782;2023-04-15T12:14:27;29.70;99.90
56298;DHT22;42208;6.376;-10.782;2023-04-15T12:19:37;29.90;99.90
56298;DHT22;42208;6.376;-10.782;2023-04-15T12:22:09;29.90;99.90
56298;DHT22;42208;6.376;-10.782;2023-04-15T12:24:38;29.90;99.90
56298;DHT22;42208;6.376;-10.782;2023-04-15T12:27:09;29.90;99.90
56298;DHT22;42208;6.376;-10.782;2023-04-15T12:29:39;29.90;99.90
56298;DHT22;42208;6.376;-10.782;2023-04-15T12:32:12;29.90;99.90
56298;DHT22;42208;6.376;-10.782;2023-04-15T12:34:51;30.00;99.90
56298;DHT22;42208;6.376;-10.782;2023-04-15T12:37:20;30.10;99.90
56298;DHT22;42208;6.376;-10.782;2023-04-15T12:39:49;30.00;99.90
56298;DHT22;42208;6.376;-10.782;2023-04-15T12:42:17;30.10;99.90
56298;DHT22;42208;6.376;-10.782;2023-04-15T12:44:46;30.10;99.90
56298;DHT22;42208;6.376;-10.782;2023-04-15T12:47:14;30.20;99.90
56298;DHT22;42208;6.376;-10.782;2023-04-15T12:49:42;30.10;99.90
56298;DHT22;42208;6.376;-10.782;2023-04-15T12:52:10;30.10;99.90
56298;DHT22;42208;6.376;-10.782;2023-04-15T12:54:39;30.10;99.90
56298;DHT22;42208;6.376;-10.782;2023-04-15T12:57:07;30.10;99.90
56298;DHT22;42208;6.376;-10.782;2023-04-15T12:59:35;30.10;99.90
56298;DHT22;42208;6.376;-10.782;2023-04-15T13:02:04;30.00;99.90
56298;DHT22;42208;6.376;-10.782;2023-04-15T13:04:32;30.00;99.90
56298;DHT22;42208;6.376;-10.782;2023-04-15T13:07:01;30.00;99.90
56298;DHT22;42208;6.376;-10.782;2023-04-15T13:09:29;30.10;99.90
56298;DHT22;42208;6.376;-10.782;2023-04-15T13:11:58;30.20;99.90
56298;DHT22;42208;6.376;-10.782;2023-04-15T13:14:26;30.30;99.90
56298;DHT22;42208;6.376;-10.782;2023-04-15T13:16:54;30.30;99.90
56298;DHT22;42208;6.376;-10.782;2023-04-15T13:19:22;30.30;99.90
56298;DHT22;42208;6.376;-10.782;2023-04-15T13:21:50;30.30;99.90
56298;DHT22;42208;6.376;-10.782;2023-04-15T13:24:19;30.30;99.90
56298;DHT22;42208;6.376;-10.782;2023-04-15T13:26:47;30.30;99.90
56298;DHT22;42208;6.376;-10.782;2023-04-15T13:29:16;30.30;99.90
56298;DHT22;42208;6.376;-10.782;2023-04-15T13:31:45;30.30;99.90
56298;DHT22;42208;6.376;-10.782;2023-04-15T13:34:13;30.40;99.90
56298;DHT22;42208;6.376;-10.782;2023-04-15T13:36:42;30.40;99.90
56298;DHT22;42208;6.376;-10.782;2023-04-15T13:39:10;30.50;99.90
56298;DHT22;42208;6.376;-10.782;2023-04-15T13:41:39;30.40;99.90
56298;DHT22;42208;6.376;-10.782;2023-04-15T13:44:07;30.50;99.90
56298;DHT22;42208;6.376;-10.782;2023-04-15T13:46:35;30.50;99.90
56298;DHT22;42208;6.376;-10.782;2023-04-15T13:49:03;30.50;99.90
56298;DHT22;42208;6.376;-10.782;2023-04-15T13:51:32;30.50;99.90
56298;DHT22;42208;6.376;-10.782;2023-04-15T13:54:00;30.60;99.90
56298;DHT22;42208;6.376;-10.782;2023-04-15T13:56:29;30.50;99.90
56298;DHT22;42208;6.376;-10.782;2023-04-15T13:58:59;30.60;99.90
56298;DHT22;42208;6.376;-10.782;2023-04-15T14:01:28;30.60;99.90
56298;DHT22;42208;6.376;-10.782;2023-04-15T14:03:56;30.60;99.90
56298;DHT22;42208;6.376;-10.782;2023-04-15T14:06:25;30.60;99.90
56298;DHT22;42208;6.376;-10.782;2023-04-15T14:08:54;30.60;99.90
56298;DHT22;42208;6.376;-10.782;2023-04-15T14:11:22;30.60;99.90
56298;DHT22;42208;6.376;-10.782;2023-04-15T14:13:50;30.60;99.90
56298;DHT22;42208;6.376;-10.782;2023-04-15T14:16:19;30.70;99.90
56298;DHT22;42208;6.376;-10.782;2023-04-15T14:18:47;30.70;99.90
56298;DHT22;42208;6.376;-10.782;2023-04-15T14:21:15;30.70;99.90
56298;DHT22;42208;6.376;-10.782;2023-04-15T14:23:43;30.70;99.90
56298;DHT22;42208;6.376;-10.782;2023-04-15T14:26:11;30.70;99.90
56298;DHT22;42208;6.376;-10.782;2023-04-15T14:28:40;30.60;99.90
56298;DHT22;42208;6.376;-10.782;2023-04-15T14:31:08;30.50;99.90
56298;DHT22;42208;6.376;-10.782;2023-04-15T14:33:36;30.50;99.90
56298;DHT22;42208;6.376;-10.782;2023-04-15T14:36:05;30.60;99.90
56298;DHT22;42208;6.376;-10.782;2023-04-15T14:38:34;30.70;99.90
56298;DHT22;42208;6.376;-10.782;2023-04-15T14:41:06;30.60;99.90
56298;DHT22;42208;6.376;-10.782;2023-04-15T14:43:34;30.80;99.90
56298;DHT22;42208;6.376;-10.782;2023-04-15T14:46:03;30.80;99.90
56298;DHT22;42208;6.376;-10.782;2023-04-15T14:48:31;30.90;99.90
56298;DHT22;42208;6.376;-10.782;2023-04-15T14:50:59;31.00;99.90
56298;DHT22;42208;6.376;-10.782;2023-04-15T14:53:28;31.10;99.90
56298;DHT22;42208;6.376;-10.782;2023-04-15T14:55:56;31.10;99.90
56298;DHT22;42208;6.376;-10.782;2023-04-15T14:58:24;31.10;99.90
56298;DHT22;42208;6.376;-10.782;2023-04-15T15:00:53;31.10;99.90
56298;DHT22;42208;6.376;-10.782;2023-04-15T15:03:22;31.20;99.90
56298;DHT22;42208;6.376;-10.782;2023-04-15T15:05:50;31.10;99.90
56298;DHT22;42208;6.376;-10.782;2023-04-15T15:08:19;31.00;99.90
56298;DHT22;42208;6.376;-10.782;2023-04-15T15:10:47;31.00;99.90
56298;DHT22;42208;6.376;-10.782;2023-04-15T15:13:17;31.00;99.90
56298;DHT22;42208;6.376;-10.782;2023-04-15T15:15:45;31.10;99.90
56298;DHT22;42208;6.376;-10.782;2023-04-15T15:18:14;31.10;99.90
56298;DHT22;42208;6.376;-10.782;2023-04-15T15:20:43;31.00;99.90
56298;DHT22;42208;6.376;-10.782;2023-04-15T15:23:13;30.90;99.90
56298;DHT22;42208;6.376;-10.782;2023-04-15T15:25:41;30.90;99.90
56298;DHT22;42208;6.376;-10.782;2023-04-15T15:28:10;30.90;99.90
56298;DHT22;42208;6.376;-10.782;2023-04-15T15:30:38;30.80;99.90
56298;DHT22;42208;6.376;-10.782;2023-04-15T15:33:06;30.80;99.90
56298;DHT22;42208;6.376;-10.782;2023-04-15T15:35:34;31.00;99.90
56298;DHT22;42208;6.376;-10.782;2023-04-15T15:38:03;31.10;99.90
56298;DHT22;42208;6.376;-10.782;2023-04-15T15:40:32;31.20;99.90
56298;DHT22;42208;6.376;-10.782;2023-04-15T15:43:00;31.30;99.90